sensor_id;sensor_type;location;lat;lon;timestamp;pressure;altitude;pressure_sealevel;temperature
69007;BMP180;56061;51.748;19.620;2022-11-24T00:01:29;98152.20;;;1.60
69007;BMP180;56061;51.748;19.620;2022-11-24T00:04:02;98156.80;;;1.60
69007;BMP180;56061;51.748;19.620;2022-11-24T00:06:32;98159.40;;;1.60
69007;BMP180;56061;51.748;19.620;2022-11-24T00:09:00;98158.00;;;1.60
69007;BMP180;56061;51.748;19.620;2022-11-24T00:11:30;98156.80;;;1.60
69007;BMP180;56061;51.748;19.620;2022-11-24T00:13:58;98160.20;;;1.52
69007;BMP180;56061;51.748;19.620;2022-11-24T00:16:29;98167.40;;;1.50
69007;BMP180;56061;51.748;19.620;2022-11-24T00:18:58;98165.20;;;1.50
69007;BMP180;56061;51.748;19.620;2022-11-24T00:21:28;98168.40;;;1.56
69007;BMP180;56061;51.748;19.620;2022-11-24T00:23:56;98166.20;;;1.60
69007;BMP180;56061;51.748;19.620;2022-11-24T00:26:28;98166.40;;;1.60
69007;BMP180;56061;51.748;19.620;2022-11-24T00:28:58;98158.40;;;1.60
69007;BMP180;56061;51.748;19.620;2022-11-24T00:31:35;98159.80;;;1.60
69007;BMP180;56061;51.748;19.620;2022-11-24T00:34:06;98162.40;;;1.60
69007;BMP180;56061;51.748;19.620;2022-11-24T00:36:35;98167.00;;;1.60
69007;BMP180;56061;51.748;19.620;2022-11-24T00:39:06;98166.40;;;1.50
69007;BMP180;56061;51.748;19.620;2022-11-24T00:41:33;98174.80;;;1.60
69007;BMP180;56061;51.748;19.620;2022-11-24T00:44:00;98170.20;;;1.60
69007;BMP180;56061;51.748;19.620;2022-11-24T00:46:27;98166.40;;;1.60
69007;BMP180;56061;51.748;19.620;2022-11-24T00:48:54;98170.00;;;1.70
69007;BMP180;56061;51.748;19.620;2022-11-24T00:51:24;98166.60;;;1.70
69007;BMP180;56061;51.748;19.620;2022-11-24T00:53:53;98168.20;;;1.70
69007;BMP180;56061;51.748;19.620;2022-11-24T00:56:22;98165.40;;;1.70
69007;BMP180;56061;51.748;19.620;2022-11-24T00:58:49;98161.20;;;1.68
69007;BMP180;56061;51.748;19.620;2022-11-24T01:01:19;98162.00;;;1.60
69007;BMP180;56061;51.748;19.620;2022-11-24T01:03:46;98166.20;;;1.60
69007;BMP180;56061;51.748;19.620;2022-11-24T01:06:20;98162.60;;;1.50
69007;BMP180;56061;51.748;19.620;2022-11-24T01:08:48;98161.80;;;1.50
69007;BMP180;56061;51.748;19.620;2022-11-24T01:11:31;98158.20;;;1.54
69007;BMP180;56061;51.748;19.620;2022-11-24T01:14:17;98160.20;;;1.60
69007;BMP180;56061;51.748;19.620;2022-11-24T01:16:44;98169.80;;;1.60
69007;BMP180;56061;51.748;19.620;2022-11-24T01:19:10;98165.60;;;1.60
69007;BMP180;56061;51.748;19.620;2022-11-24T01:21:37;98167.20;;;1.60
69007;BMP180;56061;51.748;19.620;2022-11-24T01:24:04;98168.40;;;1.60
69007;BMP180;56061;51.748;19.620;2022-11-24T01:26:30;98173.80;;;1.58
69007;BMP180;56061;51.748;19.620;2022-11-24T01:28:57;98169.60;;;1.50
69007;BMP180;56061;51.748;19.620;2022-11-24T01:31:25;98172.40;;;1.50
69007;BMP180;56061;51.748;19.620;2022-11-24T01:33:53;98172.20;;;1.50
69007;BMP180;56061;51.748;19.620;2022-11-24T01:36:20;98171.80;;;1.50
69007;BMP180;56061;51.748;19.620;2022-11-24T01:38:47;98177.80;;;1.50
69007;BMP180;56061;51.748;19.620;2022-11-24T01:41:20;98177.00;;;1.50
69007;BMP180;56061;51.748;19.620;2022-11-24T01:43:49;98173.40;;;1.50
69007;BMP180;56061;51.748;19.620;2022-11-24T01:46:42;98172.60;;;1.52
69007;BMP180;56061;51.748;19.620;2022-11-24T01:49:20;98172.60;;;1.54
69007;BMP180;56061;51.748;19.620;2022-11-24T01:52:09;98172.80;;;1.60
69007;BMP180;56061;51.748;19.620;2022-11-24T01:54:42;98172.40;;;1.60
69007;BMP180;56061;51.748;19.620;2022-11-24T01:57:41;98172.00;;;1.60
69007;BMP180;56061;51.748;19.620;2022-11-24T02:00:09;98174.60;;;1.58
69007;BMP180;56061;51.748;19.620;2022-11-24T02:02:37;98175.40;;;1.50
69007;BMP180;56061;51.748;19.620;2022-11-24T02:05:59;98176.40;;;1.50
69007;BMP180;56061;51.748;19.620;2022-11-24T02:08:00;98185.00;;;1.50
69007;BMP180;56061;51.748;19.620;2022-11-24T02:13:23;98190.80;;;1.50
69007;BMP180;56061;51.748;19.620;2022-11-24T02:15:51;98190.80;;;1.50
69007;BMP180;56061;51.748;19.620;2022-11-24T02:18:18;98194.80;;;1.50
69007;BMP180;56061;51.748;19.620;2022-11-24T02:20:45;98196.80;;;1.50
69007;BMP180;56061;51.748;19.620;2022-11-24T02:26:31;98199.80;;;1.50
69007;BMP180;56061;51.748;19.620;2022-11-24T02:28:59;98200.40;;;1.44
69007;BMP180;56061;51.748;19.620;2022-11-24T02:31:27;98198.20;;;1.40
69007;BMP180;56061;51.748;19.620;2022-11-24T02:33:54;98192.40;;;1.40
69007;BMP180;56061;51.748;19.620;2022-11-24T02:36:21;98191.40;;;1.40
69007;BMP180;56061;51.748;19.620;2022-11-24T02:38:47;98190.00;;;1.40
69007;BMP180;56061;51.748;19.620;2022-11-24T02:41:19;98188.80;;;1.42
69007;BMP180;56061;51.748;19.620;2022-11-24T02:43:55;98187.60;;;1.50
69007;BMP180;56061;51.748;19.620;2022-11-24T02:46:22;98184.80;;;1.48
69007;BMP180;56061;51.748;19.620;2022-11-24T02:48:50;98185.20;;;1.40
69007;BMP180;56061;51.748;19.620;2022-11-24T02:51:17;98184.80;;;1.38
69007;BMP180;56061;51.748;19.620;2022-11-24T02:53:43;98178.40;;;1.40
69007;BMP180;56061;51.748;19.620;2022-11-24T02:56:10;98178.00;;;1.36
69007;BMP180;56061;51.748;19.620;2022-11-24T02:58:36;98183.40;;;1.30
69007;BMP180;56061;51.748;19.620;2022-11-24T03:01:03;98187.40;;;1.30
69007;BMP180;56061;51.748;19.620;2022-11-24T03:03:30;98186.60;;;1.30
69007;BMP180;56061;51.748;19.620;2022-11-24T03:05:57;98183.40;;;1.30
69007;BMP180;56061;51.748;19.620;2022-11-24T03:08:23;98187.40;;;1.38
69007;BMP180;56061;51.748;19.620;2022-11-24T03:10:50;98191.20;;;1.30
69007;BMP180;56061;51.748;19.620;2022-11-24T03:13:16;98187.60;;;1.30
69007;BMP180;56061;51.748;19.620;2022-11-24T03:15:43;98184.80;;;1.30
69007;BMP180;56061;51.748;19.620;2022-11-24T03:18:09;98183.20;;;1.30
69007;BMP180;56061;51.748;19.620;2022-11-24T03:20:36;98179.60;;;1.30
69007;BMP180;56061;51.748;19.620;2022-11-24T03:23:02;98182.60;;;1.24
69007;BMP180;56061;51.748;19.620;2022-11-24T03:25:29;98183.80;;;1.20
69007;BMP180;56061;51.748;19.620;2022-11-24T03:27:56;98186.00;;;1.10
69007;BMP180;56061;51.748;19.620;2022-11-24T03:30:23;98184.00;;;1.10
69007;BMP180;56061;51.748;19.620;2022-11-24T03:32:51;98183.40;;;1.10
69007;BMP180;56061;51.748;19.620;2022-11-24T03:35:20;98185.60;;;1.20
69007;BMP180;56061;51.748;19.620;2022-11-24T03:37:48;98182.40;;;1.20
69007;BMP180;56061;51.748;19.620;2022-11-24T03:40:15;98186.20;;;1.20
69007;BMP180;56061;51.748;19.620;2022-11-24T03:42:43;98184.80;;;1.10
69007;BMP180;56061;51.748;19.620;2022-11-24T03:45:09;98187.40;;;1.10
69007;BMP180;56061;51.748;19.620;2022-11-24T03:47:56;98185.80;;;1.10
69007;BMP180;56061;51.748;19.620;2022-11-24T03:50:23;98189.60;;;1.10
69007;BMP180;56061;51.748;19.620;2022-11-24T03:52:50;98191.40;;;1.10
69007;BMP180;56061;51.748;19.620;2022-11-24T03:55:17;98194.60;;;1.00
69007;BMP180;56061;51.748;19.620;2022-11-24T03:57:43;98190.00;;;1.00
69007;BMP180;56061;51.748;19.620;2022-11-24T04:00:10;98192.60;;;1.00
69007;BMP180;56061;51.748;19.620;2022-11-24T04:02:37;98199.80;;;1.10
69007;BMP180;56061;51.748;19.620;2022-11-24T04:05:05;98195.00;;;1.00
69007;BMP180;56061;51.748;19.620;2022-11-24T04:07:32;98199.40;;;1.00
69007;BMP180;56061;51.748;19.620;2022-11-24T04:09:58;98197.60;;;0.90
69007;BMP180;56061;51.748;19.620;2022-11-24T04:12:25;98204.40;;;0.90
69007;BMP180;56061;51.748;19.620;2022-11-24T04:15:13;98204.80;;;0.90
69007;BMP180;56061;51.748;19.620;2022-11-24T04:17:40;98208.00;;;0.82
69007;BMP180;56061;51.748;19.620;2022-11-24T04:20:09;98209.20;;;0.90
69007;BMP180;56061;51.748;19.620;2022-11-24T04:22:36;98208.40;;;0.90
69007;BMP180;56061;51.748;19.620;2022-11-24T04:25:05;98209.60;;;0.90
69007;BMP180;56061;51.748;19.620;2022-11-24T04:27:33;98212.00;;;0.90
69007;BMP180;56061;51.748;19.620;2022-11-24T04:29:59;98216.00;;;0.90
69007;BMP180;56061;51.748;19.620;2022-11-24T04:32:26;98223.00;;;0.92
69007;BMP180;56061;51.748;19.620;2022-11-24T04:34:53;98225.20;;;1.00
69007;BMP180;56061;51.748;19.620;2022-11-24T04:37:19;98224.80;;;1.00
69007;BMP180;56061;51.748;19.620;2022-11-24T04:39:46;98228.20;;;1.00
69007;BMP180;56061;51.748;19.620;2022-11-24T04:42:13;98222.80;;;1.00
69007;BMP180;56061;51.748;19.620;2022-11-24T04:44:39;98222.40;;;0.92
69007;BMP180;56061;51.748;19.620;2022-11-24T04:47:06;98235.40;;;0.90
69007;BMP180;56061;51.748;19.620;2022-11-24T04:49:32;98229.20;;;0.90
69007;BMP180;56061;51.748;19.620;2022-11-24T04:51:59;98227.60;;;0.82
69007;BMP180;56061;51.748;19.620;2022-11-24T04:54:25;98228.20;;;0.80
69007;BMP180;56061;51.748;19.620;2022-11-24T04:56:52;98230.40;;;0.80
69007;BMP180;56061;51.748;19.620;2022-11-24T04:59:19;98228.60;;;0.68
69007;BMP180;56061;51.748;19.620;2022-11-24T05:01:46;98232.00;;;0.70
69007;BMP180;56061;51.748;19.620;2022-11-24T05:04:14;98238.20;;;0.64
69007;BMP180;56061;51.748;19.620;2022-11-24T05:06:41;98237.80;;;0.60
69007;BMP180;56061;51.748;19.620;2022-11-24T05:09:08;98244.80;;;0.50
69007;BMP180;56061;51.748;19.620;2022-11-24T05:11:38;98243.00;;;0.48
69007;BMP180;56061;51.748;19.620;2022-11-24T05:14:06;98246.80;;;0.50
69007;BMP180;56061;51.748;19.620;2022-11-24T05:16:33;98251.00;;;0.48
69007;BMP180;56061;51.748;19.620;2022-11-24T05:19:00;98253.20;;;0.48
69007;BMP180;56061;51.748;19.620;2022-11-24T05:21:27;98258.40;;;0.50
69007;BMP180;56061;51.748;19.620;2022-11-24T05:23:53;98256.20;;;0.60
69007;BMP180;56061;51.748;19.620;2022-11-24T05:26:20;98254.40;;;0.60
69007;BMP180;56061;51.748;19.620;2022-11-24T05:28:46;98253.20;;;0.70
69007;BMP180;56061;51.748;19.620;2022-11-24T05:31:13;98257.40;;;0.70
69007;BMP180;56061;51.748;19.620;2022-11-24T05:33:39;98259.40;;;0.70
69007;BMP180;56061;51.748;19.620;2022-11-24T05:36:06;98262.00;;;0.70
69007;BMP180;56061;51.748;19.620;2022-11-24T05:38:34;98269.00;;;0.70
69007;BMP180;56061;51.748;19.620;2022-11-24T05:41:03;98261.60;;;0.70
69007;BMP180;56061;51.748;19.620;2022-11-24T05:43:30;98261.60;;;0.70
69007;BMP180;56061;51.748;19.620;2022-11-24T05:46:00;98265.40;;;0.68
69007;BMP180;56061;51.748;19.620;2022-11-24T05:48:27;98270.80;;;0.62
69007;BMP180;56061;51.748;19.620;2022-11-24T05:50:55;98269.20;;;0.68
69007;BMP180;56061;51.748;19.620;2022-11-24T05:53:22;98274.40;;;0.70
69007;BMP180;56061;51.748;19.620;2022-11-24T05:55:49;98277.20;;;0.66
69007;BMP180;56061;51.748;19.620;2022-11-24T05:58:15;98277.80;;;0.64
69007;BMP180;56061;51.748;19.620;2022-11-24T06:00:41;98284.60;;;0.66
69007;BMP180;56061;51.748;19.620;2022-11-24T06:03:10;98287.20;;;0.60
69007;BMP180;56061;51.748;19.620;2022-11-24T06:05:37;98287.20;;;0.60
69007;BMP180;56061;51.748;19.620;2022-11-24T06:08:04;98291.20;;;0.60
69007;BMP180;56061;51.748;19.620;2022-11-24T06:10:30;98295.80;;;0.54
69007;BMP180;56061;51.748;19.620;2022-11-24T06:12:57;98295.00;;;0.50
69007;BMP180;56061;51.748;19.620;2022-11-24T06:15:23;98298.00;;;0.50
69007;BMP180;56061;51.748;19.620;2022-11-24T06:17:54;98299.20;;;0.50
69007;BMP180;56061;51.748;19.620;2022-11-24T06:20:23;98302.80;;;0.50
69007;BMP180;56061;51.748;19.620;2022-11-24T06:22:58;98300.80;;;0.50
69007;BMP180;56061;51.748;19.620;2022-11-24T06:25:26;98305.20;;;0.50
69007;BMP180;56061;51.748;19.620;2022-11-24T06:27:52;98306.20;;;0.50
69007;BMP180;56061;51.748;19.620;2022-11-24T06:30:19;98307.60;;;0.50
69007;BMP180;56061;51.748;19.620;2022-11-24T06:32:45;98310.20;;;0.50
69007;BMP180;56061;51.748;19.620;2022-11-24T06:35:15;98318.60;;;0.50
69007;BMP180;56061;51.748;19.620;2022-11-24T06:37:42;98314.40;;;0.40
69007;BMP180;56061;51.748;19.620;2022-11-24T06:40:09;98319.40;;;0.40
69007;BMP180;56061;51.748;19.620;2022-11-24T06:42:36;98322.20;;;0.40
69007;BMP180;56061;51.748;19.620;2022-11-24T06:45:03;98321.60;;;0.46
69007;BMP180;56061;51.748;19.620;2022-11-24T06:47:34;98328.60;;;0.50
69007;BMP180;56061;51.748;19.620;2022-11-24T06:50:01;98326.40;;;0.50
69007;BMP180;56061;51.748;19.620;2022-11-24T06:52:28;98323.40;;;0.60
69007;BMP180;56061;51.748;19.620;2022-11-24T06:54:54;98327.80;;;0.60
69007;BMP180;56061;51.748;19.620;2022-11-24T06:57:20;98334.00;;;0.60
69007;BMP180;56061;51.748;19.620;2022-11-24T06:59:47;98337.00;;;0.60
69007;BMP180;56061;51.748;19.620;2022-11-24T07:02:14;98337.20;;;0.60
69007;BMP180;56061;51.748;19.620;2022-11-24T07:04:40;98339.40;;;0.60
69007;BMP180;56061;51.748;19.620;2022-11-24T07:07:07;98337.60;;;0.60
69007;BMP180;56061;51.748;19.620;2022-11-24T07:09:33;98338.20;;;0.60
69007;BMP180;56061;51.748;19.620;2022-11-24T07:12:00;98345.00;;;0.60
69007;BMP180;56061;51.748;19.620;2022-11-24T07:14:27;98340.80;;;0.60
69007;BMP180;56061;51.748;19.620;2022-11-24T07:16:54;98338.40;;;0.64
69007;BMP180;56061;51.748;19.620;2022-11-24T07:19:20;98344.20;;;0.70
69007;BMP180;56061;51.748;19.620;2022-11-24T07:21:50;98342.40;;;0.80
69007;BMP180;56061;51.748;19.620;2022-11-24T07:24:16;98341.80;;;0.80
69007;BMP180;56061;51.748;19.620;2022-11-24T07:26:43;98342.40;;;0.90
69007;BMP180;56061;51.748;19.620;2022-11-24T07:29:09;98346.20;;;0.90
69007;BMP180;56061;51.748;19.620;2022-11-24T07:31:36;98348.20;;;0.96
69007;BMP180;56061;51.748;19.620;2022-11-24T07:34:03;98351.60;;;1.00
69007;BMP180;56061;51.748;19.620;2022-11-24T07:36:29;98349.20;;;1.00
69007;BMP180;56061;51.748;19.620;2022-11-24T07:38:56;98347.00;;;1.04
69007;BMP180;56061;51.748;19.620;2022-11-24T07:41:22;98348.80;;;1.08
69007;BMP180;56061;51.748;19.620;2022-11-24T07:43:49;98350.80;;;1.10
69007;BMP180;56061;51.748;19.620;2022-11-24T07:46:18;98351.20;;;1.10
69007;BMP180;56061;51.748;19.620;2022-11-24T07:48:45;98353.40;;;1.12
69007;BMP180;56061;51.748;19.620;2022-11-24T07:51:12;98354.20;;;1.12
69007;BMP180;56061;51.748;19.620;2022-11-24T07:53:39;98353.00;;;1.10
69007;BMP180;56061;51.748;19.620;2022-11-24T07:56:06;98354.40;;;1.10
69007;BMP180;56061;51.748;19.620;2022-11-24T07:58:36;98351.40;;;1.10
69007;BMP180;56061;51.748;19.620;2022-11-24T08:01:14;98352.80;;;1.10
69007;BMP180;56061;51.748;19.620;2022-11-24T08:03:42;98354.00;;;1.08
69007;BMP180;56061;51.748;19.620;2022-11-24T08:06:12;98354.60;;;1.10
69007;BMP180;56061;51.748;19.620;2022-11-24T08:08:53;98363.00;;;1.02
69007;BMP180;56061;51.748;19.620;2022-11-24T08:11:20;98362.00;;;1.00
69007;BMP180;56061;51.748;19.620;2022-11-24T08:13:46;98366.00;;;1.00
69007;BMP180;56061;51.748;19.620;2022-11-24T08:16:16;98366.80;;;1.00
69007;BMP180;56061;51.748;19.620;2022-11-24T08:18:48;98365.60;;;1.10
69007;BMP180;56061;51.748;19.620;2022-11-24T08:21:15;98371.00;;;1.10
69007;BMP180;56061;51.748;19.620;2022-11-24T08:23:42;98364.60;;;1.06
69007;BMP180;56061;51.748;19.620;2022-11-24T08:26:13;98368.20;;;1.00
69007;BMP180;56061;51.748;19.620;2022-11-24T08:28:44;98368.80;;;1.00
69007;BMP180;56061;51.748;19.620;2022-11-24T08:31:15;98373.80;;;0.98
69007;BMP180;56061;51.748;19.620;2022-11-24T08:33:42;98367.00;;;0.92
69007;BMP180;56061;51.748;19.620;2022-11-24T08:36:12;98376.60;;;0.90
69007;BMP180;56061;51.748;19.620;2022-11-24T08:38:39;98375.00;;;0.90
69007;BMP180;56061;51.748;19.620;2022-11-24T08:41:10;98373.40;;;0.90
69007;BMP180;56061;51.748;19.620;2022-11-24T08:43:37;98380.60;;;0.90
69007;BMP180;56061;51.748;19.620;2022-11-24T08:46:08;98380.60;;;0.90
69007;BMP180;56061;51.748;19.620;2022-11-24T08:48:35;98383.80;;;1.00
69007;BMP180;56061;51.748;19.620;2022-11-24T08:51:13;98385.00;;;1.00
69007;BMP180;56061;51.748;19.620;2022-11-24T08:53:40;98386.00;;;1.02
69007;BMP180;56061;51.748;19.620;2022-11-24T08:56:09;98388.20;;;1.00
69007;BMP180;56061;51.748;19.620;2022-11-24T08:58:37;98386.80;;;1.00
69007;BMP180;56061;51.748;19.620;2022-11-24T09:01:11;98390.00;;;1.00
69007;BMP180;56061;51.748;19.620;2022-11-24T09:03:38;98393.80;;;1.00
69007;BMP180;56061;51.748;19.620;2022-11-24T09:06:15;98389.60;;;1.00
69007;BMP180;56061;51.748;19.620;2022-11-24T09:08:41;98396.20;;;1.00
69007;BMP180;56061;51.748;19.620;2022-11-24T09:11:13;98396.20;;;1.00
69007;BMP180;56061;51.748;19.620;2022-11-24T09:13:40;98395.20;;;1.00
69007;BMP180;56061;51.748;19.620;2022-11-24T09:16:16;98397.40;;;1.00
69007;BMP180;56061;51.748;19.620;2022-11-24T09:18:44;98391.80;;;1.00
69007;BMP180;56061;51.748;19.620;2022-11-24T09:21:18;98393.40;;;1.00
69007;BMP180;56061;51.748;19.620;2022-11-24T09:23:48;98390.80;;;1.06
69007;BMP180;56061;51.748;19.620;2022-11-24T09:26:28;98395.60;;;1.04
69007;BMP180;56061;51.748;19.620;2022-11-24T09:28:57;98394.40;;;1.10
69007;BMP180;56061;51.748;19.620;2022-11-24T09:31:34;98400.00;;;1.10
69007;BMP180;56061;51.748;19.620;2022-11-24T09:34:05;98397.00;;;1.20
69007;BMP180;56061;51.748;19.620;2022-11-24T09:36:32;98397.80;;;1.20
69007;BMP180;56061;51.748;19.620;2022-11-24T09:38:59;98401.20;;;1.20
69007;BMP180;56061;51.748;19.620;2022-11-24T09:50:19;98400.00;;;1.20
69007;BMP180;56061;51.748;19.620;2022-11-24T09:55:58;98404.40;;;1.30
69007;BMP180;56061;51.748;19.620;2022-11-24T09:58:44;98400.80;;;1.24
69007;BMP180;56061;51.748;19.620;2022-11-24T10:01:32;98401.60;;;1.30
69007;BMP180;56061;51.748;19.620;2022-11-24T10:04:01;98395.00;;;1.30
69007;BMP180;56061;51.748;19.620;2022-11-24T10:06:44;98393.80;;;1.40
69007;BMP180;56061;51.748;19.620;2022-11-24T10:15:36;98395.80;;;1.56
69007;BMP180;56061;51.748;19.620;2022-11-24T10:18:38;98397.20;;;1.58
69007;BMP180;56061;51.748;19.620;2022-11-24T10:21:50;98393.20;;;1.50
69007;BMP180;56061;51.748;19.620;2022-11-24T10:27:43;98394.20;;;1.42
69007;BMP180;56061;51.748;19.620;2022-11-24T10:30:21;98389.20;;;1.40
69007;BMP180;56061;51.748;19.620;2022-11-24T10:32:57;98389.80;;;1.40
69007;BMP180;56061;51.748;19.620;2022-11-24T10:35:54;98392.00;;;1.46
69007;BMP180;56061;51.748;19.620;2022-11-24T10:38:37;98393.40;;;1.42
69007;BMP180;56061;51.748;19.620;2022-11-24T10:41:19;98400.20;;;1.50
69007;BMP180;56061;51.748;19.620;2022-11-24T10:43:47;98400.80;;;1.50
69007;BMP180;56061;51.748;19.620;2022-11-24T10:46:21;98400.60;;;1.30
69007;BMP180;56061;51.748;19.620;2022-11-24T10:48:56;98396.60;;;1.30
69007;BMP180;56061;51.748;19.620;2022-11-24T10:54:04;98400.00;;;1.28
69007;BMP180;56061;51.748;19.620;2022-11-24T10:56:43;98405.40;;;1.10
69007;BMP180;56061;51.748;19.620;2022-11-24T10:59:35;98405.40;;;1.14
69007;BMP180;56061;51.748;19.620;2022-11-24T11:04:55;98401.20;;;1.20
69007;BMP180;56061;51.748;19.620;2022-11-24T11:07:24;98399.00;;;1.10
69007;BMP180;56061;51.748;19.620;2022-11-24T11:10:22;98395.80;;;1.10
69007;BMP180;56061;51.748;19.620;2022-11-24T11:12:49;98398.00;;;1.00
69007;BMP180;56061;51.748;19.620;2022-11-24T11:15:29;98402.80;;;1.00
69007;BMP180;56061;51.748;19.620;2022-11-24T11:17:59;98397.00;;;1.10
69007;BMP180;56061;51.748;19.620;2022-11-24T11:20:31;98396.00;;;1.10
69007;BMP180;56061;51.748;19.620;2022-11-24T11:23:02;98401.00;;;1.20
69007;BMP180;56061;51.748;19.620;2022-11-24T11:25:33;98402.80;;;1.30
69007;BMP180;56061;51.748;19.620;2022-11-24T11:31:05;98413.00;;;1.40
69007;BMP180;56061;51.748;19.620;2022-11-24T11:34:12;98408.20;;;1.50
69007;BMP180;56061;51.748;19.620;2022-11-24T11:36:54;98409.00;;;1.60
69007;BMP180;56061;51.748;19.620;2022-11-24T11:39:37;98417.20;;;1.68
69007;BMP180;56061;51.748;19.620;2022-11-24T11:45:58;98413.40;;;1.70
69007;BMP180;56061;51.748;19.620;2022-11-24T11:48:32;98416.60;;;1.70
69007;BMP180;56061;51.748;19.620;2022-11-24T11:51:34;98414.80;;;1.70
69007;BMP180;56061;51.748;19.620;2022-11-24T11:54:31;98420.60;;;1.70
69007;BMP180;56061;51.748;19.620;2022-11-24T11:57:36;98419.60;;;1.70
69007;BMP180;56061;51.748;19.620;2022-11-24T12:00:20;98427.20;;;1.60
69007;BMP180;56061;51.748;19.620;2022-11-24T12:05:49;98433.80;;;1.68
69007;BMP180;56061;51.748;19.620;2022-11-24T12:15:19;98440.00;;;1.70
69007;BMP180;56061;51.748;19.620;2022-11-24T12:24:36;98439.80;;;1.70
69007;BMP180;56061;51.748;19.620;2022-11-24T12:27:38;98440.60;;;1.70
69007;BMP180;56061;51.748;19.620;2022-11-24T12:30:19;98441.60;;;1.70
69007;BMP180;56061;51.748;19.620;2022-11-24T12:39:20;98441.60;;;1.60
69007;BMP180;56061;51.748;19.620;2022-11-24T12:42:12;98444.20;;;1.60
69007;BMP180;56061;51.748;19.620;2022-11-24T12:45:00;98451.00;;;1.60
69007;BMP180;56061;51.748;19.620;2022-11-24T12:50:19;98446.20;;;1.50
69007;BMP180;56061;51.748;19.620;2022-11-24T12:55:31;98447.20;;;1.54
69007;BMP180;56061;51.748;19.620;2022-11-24T12:58:35;98455.00;;;1.60
69007;BMP180;56061;51.748;19.620;2022-11-24T13:09:24;98449.40;;;1.70
69007;BMP180;56061;51.748;19.620;2022-11-24T13:11:51;98460.00;;;1.70
69007;BMP180;56061;51.748;19.620;2022-11-24T13:14:31;98457.40;;;1.70
69007;BMP180;56061;51.748;19.620;2022-11-24T13:17:20;98459.40;;;1.60
69007;BMP180;56061;51.748;19.620;2022-11-24T13:22:59;98461.00;;;1.50
69007;BMP180;56061;51.748;19.620;2022-11-24T13:25:34;98464.00;;;1.40
69007;BMP180;56061;51.748;19.620;2022-11-24T13:28:03;98458.40;;;1.50
69007;BMP180;56061;51.748;19.620;2022-11-24T13:33:31;98456.20;;;1.60
69007;BMP180;56061;51.748;19.620;2022-11-24T13:46:59;98469.40;;;1.50
69007;BMP180;56061;51.748;19.620;2022-11-24T13:49:43;98469.00;;;1.50
69007;BMP180;56061;51.748;19.620;2022-11-24T13:53:11;98469.00;;;1.40
69007;BMP180;56061;51.748;19.620;2022-11-24T13:55:41;98475.00;;;1.30
69007;BMP180;56061;51.748;19.620;2022-11-24T13:58:26;98475.40;;;1.30
69007;BMP180;56061;51.748;19.620;2022-11-24T14:01:21;98474.60;;;1.30
69007;BMP180;56061;51.748;19.620;2022-11-24T14:04:24;98476.60;;;1.30
69007;BMP180;56061;51.748;19.620;2022-11-24T14:07:06;98483.00;;;1.40
69007;BMP180;56061;51.748;19.620;2022-11-24T14:09:51;98484.80;;;1.40
69007;BMP180;56061;51.748;19.620;2022-11-24T14:12:24;98484.00;;;1.40
69007;BMP180;56061;51.748;19.620;2022-11-24T14:14:53;98487.80;;;1.40
69007;BMP180;56061;51.748;19.620;2022-11-24T14:17:25;98491.00;;;1.40
69007;BMP180;56061;51.748;19.620;2022-11-24T14:19:55;98490.60;;;1.40
69007;BMP180;56061;51.748;19.620;2022-11-24T14:22:33;98495.60;;;1.40
69007;BMP180;56061;51.748;19.620;2022-11-24T14:25:02;98495.20;;;1.30
69007;BMP180;56061;51.748;19.620;2022-11-24T14:27:38;98502.60;;;1.20
69007;BMP180;56061;51.748;19.620;2022-11-24T14:32:34;98500.80;;;1.20
69007;BMP180;56061;51.748;19.620;2022-11-24T14:35:31;98504.80;;;1.10
69007;BMP180;56061;51.748;19.620;2022-11-24T14:38:04;98510.80;;;1.10
69007;BMP180;56061;51.748;19.620;2022-11-24T14:40:52;98514.00;;;1.10
69007;BMP180;56061;51.748;19.620;2022-11-24T14:43:28;98512.00;;;1.10
69007;BMP180;56061;51.748;19.620;2022-11-24T14:46:02;98514.40;;;1.14
69007;BMP180;56061;51.748;19.620;2022-11-24T14:48:35;98515.00;;;1.20
69007;BMP180;56061;51.748;19.620;2022-11-24T14:51:24;98513.00;;;1.10
69007;BMP180;56061;51.748;19.620;2022-11-24T14:53:56;98518.00;;;1.10
69007;BMP180;56061;51.748;19.620;2022-11-24T14:56:33;98519.40;;;1.10
69007;BMP180;56061;51.748;19.620;2022-11-24T14:59:02;98530.20;;;1.00
69007;BMP180;56061;51.748;19.620;2022-11-24T15:01:32;98530.80;;;0.90
69007;BMP180;56061;51.748;19.620;2022-11-24T15:04:26;98529.40;;;0.90
69007;BMP180;56061;51.748;19.620;2022-11-24T15:07:25;98526.60;;;0.90
69007;BMP180;56061;51.748;19.620;2022-11-24T15:09:56;98533.20;;;0.90
69007;BMP180;56061;51.748;19.620;2022-11-24T15:15:16;98543.60;;;1.00
69007;BMP180;56061;51.748;19.620;2022-11-24T15:17:50;98538.80;;;1.00
69007;BMP180;56061;51.748;19.620;2022-11-24T15:20:38;98538.80;;;0.96
69007;BMP180;56061;51.748;19.620;2022-11-24T15:23:17;98539.80;;;0.80
69007;BMP180;56061;51.748;19.620;2022-11-24T15:25:46;98547.00;;;0.80
69007;BMP180;56061;51.748;19.620;2022-11-24T15:28:12;98543.00;;;0.70
69007;BMP180;56061;51.748;19.620;2022-11-24T15:30:40;98539.60;;;0.66
69007;BMP180;56061;51.748;19.620;2022-11-24T15:33:14;98537.40;;;0.70
69007;BMP180;56061;51.748;19.620;2022-11-24T15:35:42;98542.60;;;0.66
69007;BMP180;56061;51.748;19.620;2022-11-24T15:38:09;98548.80;;;0.60
69007;BMP180;56061;51.748;19.620;2022-11-24T15:40:37;98543.80;;;0.70
69007;BMP180;56061;51.748;19.620;2022-11-24T15:45:46;98545.80;;;0.80
69007;BMP180;56061;51.748;19.620;2022-11-24T15:48:13;98546.20;;;0.90
69007;BMP180;56061;51.748;19.620;2022-11-24T15:50:45;98546.00;;;0.90
69007;BMP180;56061;51.748;19.620;2022-11-24T15:53:33;98542.60;;;0.90
69007;BMP180;56061;51.748;19.620;2022-11-24T15:56:06;98550.00;;;0.90
69007;BMP180;56061;51.748;19.620;2022-11-24T15:58:33;98550.00;;;0.90
69007;BMP180;56061;51.748;19.620;2022-11-24T16:00:59;98546.40;;;0.80
69007;BMP180;56061;51.748;19.620;2022-11-24T16:03:26;98549.60;;;0.86
69007;BMP180;56061;51.748;19.620;2022-11-24T16:06:16;98554.20;;;0.80
69007;BMP180;56061;51.748;19.620;2022-11-24T16:08:50;98563.40;;;0.80
69007;BMP180;56061;51.748;19.620;2022-11-24T16:11:17;98561.40;;;0.80
69007;BMP180;56061;51.748;19.620;2022-11-24T16:13:43;98567.80;;;0.80
69007;BMP180;56061;51.748;19.620;2022-11-24T16:16:18;98568.80;;;0.70
69007;BMP180;56061;51.748;19.620;2022-11-24T16:18:45;98576.00;;;0.70